ASA6T PASI-PAFA
Flight info
| Callsign | ASA6T |
|---|---|
| Flight time | 1h 34m |
| Altitude | 32000 |
| Route | STKA1 SSR Q902 RDFLG HRDNG4 |
| Aircraft | B738/M-SDE2E3FGHIRWXY/LB1 |
Departure
| Time | 2026-04-29 19:05 |
|---|---|
| Airport | Sitka Rocky Gutierrez Airport (PASI) |
Arrival
| Time | 2026-04-29 20:39 |
|---|---|
| Airport | Fairbanks International Airport (PAFA) |
| Time | Latitude | Longitude | Altitude | Speed | Heading |
|---|---|---|---|---|---|
| 2026-04-29 18:45 | 57.05268 | -135.36662 | 37 ft | 0 kts | 47° |
| 2026-04-29 18:59 | 57.05251 | -135.36694 | 36 ft | 4 kts | 50° |
| 2026-04-29 19:00 | 57.05237 | -135.36733 | 37 ft | 4 kts | 58° |
| 2026-04-29 19:00 | 57.05219 | -135.36764 | 37 ft | 4 kts | 9° |
| 2026-04-29 19:00 | 57.05196 | -135.36757 | 36 ft | 4 kts | 324° |
| 2026-04-29 19:00 | 57.05186 | -135.36743 | 37 ft | 1 kts | 317° |
| 2026-04-29 19:01 | 57.05185 | -135.36742 | 37 ft | 0 kts | 317° |
| 2026-04-29 19:02 | 57.05186 | -135.36743 | 37 ft | 1 kts | 318° |
| 2026-04-29 19:02 | 57.05226 | -135.36810 | 35 ft | 13 kts | 317° |
| 2026-04-29 19:03 | 57.05290 | -135.36926 | 37 ft | 13 kts | 315° |
| 2026-04-29 19:03 | 57.05352 | -135.37039 | 37 ft | 12 kts | 314° |
| 2026-04-29 19:03 | 57.05387 | -135.37172 | 38 ft | 12 kts | 252° |
| 2026-04-29 19:03 | 57.05340 | -135.37256 | 39 ft | 8 kts | 200° |
| 2026-04-29 19:04 | 57.05295 | -135.37217 | 37 ft | 7 kts | 135° |
| 2026-04-29 19:04 | 57.05157 | -135.36963 | 38 ft | 65 kts | 135° |
| 2026-04-29 19:04 | 57.04655 | -135.36054 | 37 ft | 137 kts | 136° |
| 2026-04-29 19:04 | 57.03877 | -135.34612 | 410 ft | 166 kts | 133° |
| 2026-04-29 19:05 | 57.03031 | -135.33181 | 1296 ft | 163 kts | 149° |
| 2026-04-29 19:05 | 57.01915 | -135.32497 | 1829 ft | 183 kts | 180° |
| 2026-04-29 19:05 | 57.00619 | -135.33173 | 2113 ft | 209 kts | 215° |
| 2026-04-29 19:05 | 56.99638 | -135.35304 | 2463 ft | 230 kts | 238° |
| 2026-04-29 19:06 | 56.98852 | -135.37954 | 3184 ft | 239 kts | 245° |
| 2026-04-29 19:06 | 56.98617 | -135.40986 | 4098 ft | 248 kts | 273° |
| 2026-04-29 19:06 | 57.00594 | -135.46433 | 5733 ft | 277 kts | 328° |
| 2026-04-29 19:07 | 57.02477 | -135.47342 | 6454 ft | 288 kts | 358° |
| 2026-04-29 19:07 | 57.03817 | -135.47259 | 6921 ft | 293 kts | 4° |
| 2026-04-29 19:07 | 57.06557 | -135.46788 | 7983 ft | 297 kts | 6° |
| 2026-04-29 19:07 | 57.08607 | -135.46371 | 8764 ft | 301 kts | 6° |
| 2026-04-29 19:08 | 57.10715 | -135.45938 | 9571 ft | 306 kts | 6° |
| 2026-04-29 19:08 | 57.12849 | -135.45510 | 10332 ft | 312 kts | 5° |
| 2026-04-29 19:08 | 57.15077 | -135.45074 | 10609 ft | 334 kts | 5° |
| 2026-04-29 19:08 | 57.17438 | -135.44627 | 10811 ft | 358 kts | 4° |
| 2026-04-29 19:09 | 57.19999 | -135.44150 | 11082 ft | 379 kts | 4° |
| 2026-04-29 19:09 | 57.22647 | -135.43666 | 11707 ft | 385 kts | 4° |
| 2026-04-29 19:09 | 57.25327 | -135.43173 | 12467 ft | 389 kts | 4° |
| 2026-04-29 19:09 | 57.28037 | -135.42676 | 13209 ft | 394 kts | 4° |
| 2026-04-29 19:10 | 57.30784 | -135.42176 | 13997 ft | 398 kts | 3° |
| 2026-04-29 19:10 | 57.33554 | -135.41668 | 14699 ft | 402 kts | 4° |
| 2026-04-29 19:10 | 57.36343 | -135.41154 | 15454 ft | 404 kts | 4° |
| 2026-04-29 19:10 | 57.39152 | -135.40638 | 16211 ft | 408 kts | 4° |
| 2026-04-29 19:11 | 57.41998 | -135.40118 | 16918 ft | 412 kts | 4° |
| 2026-04-29 19:11 | 57.44859 | -135.39592 | 17637 ft | 415 kts | 4° |
| 2026-04-29 19:11 | 57.47750 | -135.39063 | 18347 ft | 420 kts | 4° |
| 2026-04-29 19:11 | 57.50683 | -135.38521 | 18973 ft | 424 kts | 4° |
| 2026-04-29 19:12 | 57.53627 | -135.37975 | 19595 ft | 427 kts | 4° |
| 2026-04-29 19:12 | 57.56595 | -135.37426 | 20204 ft | 431 kts | 4° |
| 2026-04-29 19:12 | 57.59595 | -135.36871 | 20753 ft | 436 kts | 4° |
| 2026-04-29 19:12 | 57.60581 | -135.36689 | 20944 ft | 438 kts | 4° |
| 2026-04-29 19:13 | 57.65664 | -135.35741 | 21935 ft | 445 kts | 4° |
| 2026-04-29 19:13 | 57.68759 | -135.35133 | 22527 ft | 448 kts | 4° |
| 2026-04-29 19:13 | 57.71872 | -135.34549 | 23038 ft | 453 kts | 3° |
| 2026-04-29 19:13 | 57.75023 | -135.33980 | 23524 ft | 457 kts | 3° |
| 2026-04-29 19:14 | 57.78208 | -135.33398 | 23975 ft | 461 kts | 3° |
| 2026-04-29 19:14 | 57.81422 | -135.32804 | 24384 ft | 466 kts | 3° |
| 2026-04-29 19:14 | 57.84660 | -135.32188 | 24906 ft | 467 kts | 3° |
| 2026-04-29 19:14 | 57.87888 | -135.31569 | 25413 ft | 468 kts | 3° |
| 2026-04-29 19:15 | 57.91137 | -135.30966 | 25932 ft | 470 kts | 2° |
| 2026-04-29 19:15 | 57.94403 | -135.30363 | 26382 ft | 473 kts | 2° |
| 2026-04-29 19:15 | 57.97702 | -135.29745 | 26851 ft | 476 kts | 2° |
| 2026-04-29 19:15 | 58.00975 | -135.29120 | 27070 ft | 483 kts | 2° |
| 2026-04-29 19:16 | 58.04345 | -135.28474 | 27440 ft | 487 kts | 2° |
| 2026-04-29 19:16 | 58.07722 | -135.27833 | 27937 ft | 488 kts | 2° |
| 2026-04-29 19:16 | 58.11116 | -135.27194 | 28348 ft | 492 kts | 2° |
| 2026-04-29 19:16 | 58.14525 | -135.26785 | 28754 ft | 491 kts | 355° |
| 2026-04-29 19:17 | 58.17904 | -135.27473 | 29132 ft | 485 kts | 342° |
| 2026-04-29 19:17 | 58.21107 | -135.29356 | 29494 ft | 479 kts | 332° |
| 2026-04-29 19:17 | 58.24089 | -135.32100 | 29879 ft | 473 kts | 324° |
| 2026-04-29 19:17 | 58.26966 | -135.35159 | 30503 ft | 469 kts | 323° |
| 2026-04-29 19:18 | 58.29729 | -135.38232 | 31334 ft | 456 kts | 322° |
| 2026-04-29 19:18 | 58.30647 | -135.39267 | 31543 ft | 453 kts | 321° |
| 2026-04-29 19:18 | 58.35218 | -135.44181 | 32063 ft | 460 kts | 322° |
| 2026-04-29 19:18 | 58.37117 | -135.46163 | 32225 ft | 462 kts | 323° |
| 2026-04-29 19:19 | 58.40838 | -135.50215 | 32209 ft | 468 kts | 322° |
| 2026-04-29 19:19 | 58.45567 | -135.55404 | 32213 ft | 464 kts | 322° |
| 2026-04-29 19:20 | 58.51178 | -135.61517 | 32619 ft | 469 kts | 322° |
| 2026-04-29 19:20 | 58.54006 | -135.64565 | 33254 ft | 463 kts | 322° |
| 2026-04-29 19:20 | 58.56798 | -135.67562 | 33796 ft | 459 kts | 322° |
| 2026-04-29 19:20 | 58.59586 | -135.70565 | 34106 ft | 461 kts | 321° |
| 2026-04-29 19:21 | 58.62387 | -135.73598 | 34196 ft | 463 kts | 321° |
| 2026-04-29 19:21 | 58.68030 | -135.79750 | 34231 ft | 468 kts | 321° |
| 2026-04-29 19:22 | 58.73667 | -135.85896 | 34206 ft | 464 kts | 321° |
| 2026-04-29 19:22 | 58.79248 | -135.92009 | 34215 ft | 460 kts | 321° |
| 2026-04-29 19:23 | 58.84797 | -135.98111 | 34221 ft | 458 kts | 321° |
| 2026-04-29 19:23 | 58.90385 | -136.04297 | 34252 ft | 469 kts | 321° |
| 2026-04-29 19:24 | 58.96078 | -136.10616 | 34227 ft | 474 kts | 321° |
| 2026-04-29 19:24 | 59.01814 | -136.16988 | 34234 ft | 471 kts | 321° |
| 2026-04-29 19:25 | 59.07389 | -136.23202 | 34244 ft | 461 kts | 320° |
| 2026-04-29 19:25 | 59.12989 | -136.29483 | 34257 ft | 463 kts | 320° |
| 2026-04-29 19:26 | 59.18554 | -136.35755 | 34234 ft | 465 kts | 320° |
| 2026-04-29 19:26 | 59.24163 | -136.42094 | 34237 ft | 466 kts | 320° |
| 2026-04-29 19:27 | 59.29793 | -136.48489 | 34224 ft | 467 kts | 320° |
| 2026-04-29 19:27 | 59.35371 | -136.54879 | 34229 ft | 468 kts | 320° |
| 2026-04-29 19:28 | 59.41004 | -136.61360 | 34227 ft | 468 kts | 320° |
| 2026-04-29 19:28 | 59.46632 | -136.67858 | 34214 ft | 469 kts | 319° |
| 2026-04-29 19:29 | 59.52222 | -136.74338 | 34218 ft | 468 kts | 319° |
| 2026-04-29 19:29 | 59.57836 | -136.80862 | 34209 ft | 467 kts | 319° |
| 2026-04-29 19:30 | 59.63437 | -136.87404 | 34215 ft | 467 kts | 319° |
| 2026-04-29 19:30 | 59.69004 | -136.93937 | 34215 ft | 469 kts | 319° |
| 2026-04-29 19:31 | 59.74626 | -137.00559 | 34231 ft | 468 kts | 319° |
| 2026-04-29 19:31 | 59.80203 | -137.07159 | 34217 ft | 466 kts | 319° |
| 2026-04-29 19:32 | 59.85736 | -137.13716 | 34205 ft | 464 kts | 319° |
| 2026-04-29 19:32 | 59.91285 | -137.20322 | 34220 ft | 463 kts | 319° |
| 2026-04-29 19:33 | 59.96812 | -137.26933 | 34223 ft | 463 kts | 318° |
| 2026-04-29 19:33 | 60.02332 | -137.33565 | 34232 ft | 463 kts | 318° |
| 2026-04-29 19:34 | 60.07814 | -137.40174 | 34208 ft | 463 kts | 318° |
| 2026-04-29 19:34 | 60.13325 | -137.46846 | 34224 ft | 461 kts | 318° |
| 2026-04-29 19:35 | 60.18824 | -137.53529 | 34218 ft | 461 kts | 318° |
| 2026-04-29 19:35 | 60.24324 | -137.60244 | 34224 ft | 462 kts | 318° |
| 2026-04-29 19:36 | 60.29799 | -137.66948 | 34232 ft | 463 kts | 318° |
| 2026-04-29 19:36 | 60.35328 | -137.73743 | 34238 ft | 464 kts | 318° |
| 2026-04-29 19:37 | 60.40816 | -137.80514 | 34210 ft | 463 kts | 318° |
| 2026-04-29 19:37 | 60.46317 | -137.87332 | 34233 ft | 463 kts | 318° |
| 2026-04-29 19:38 | 60.51842 | -137.94181 | 34219 ft | 467 kts | 318° |
| 2026-04-29 19:38 | 60.57377 | -138.01082 | 34218 ft | 465 kts | 317° |
| 2026-04-29 19:39 | 60.62833 | -138.07971 | 34229 ft | 463 kts | 317° |
| 2026-04-29 19:39 | 60.68346 | -138.14921 | 34193 ft | 465 kts | 318° |
| 2026-04-29 19:40 | 60.73776 | -138.21833 | 34213 ft | 463 kts | 318° |
| 2026-04-29 19:40 | 60.79268 | -138.28825 | 34201 ft | 463 kts | 317° |
| 2026-04-29 19:41 | 60.84723 | -138.35777 | 34192 ft | 465 kts | 317° |
| 2026-04-29 19:41 | 60.90224 | -138.42788 | 34199 ft | 466 kts | 317° |
| 2026-04-29 19:42 | 60.95726 | -138.49838 | 34169 ft | 466 kts | 317° |
| 2026-04-29 19:42 | 61.01230 | -138.56943 | 34221 ft | 466 kts | 317° |
| 2026-04-29 19:43 | 61.06704 | -138.64052 | 34171 ft | 468 kts | 317° |
| 2026-04-29 19:43 | 61.12215 | -138.71261 | 34156 ft | 468 kts | 316° |
| 2026-04-29 19:44 | 61.17743 | -138.78465 | 34085 ft | 470 kts | 317° |
| 2026-04-29 19:44 | 61.23245 | -138.85661 | 34026 ft | 470 kts | 317° |
| 2026-04-29 19:45 | 61.28766 | -138.92935 | 34083 ft | 468 kts | 316° |
| 2026-04-29 19:45 | 61.34263 | -139.00230 | 34022 ft | 468 kts | 316° |
| 2026-04-29 19:46 | 61.39601 | -139.07835 | 34021 ft | 458 kts | 310° |
| 2026-04-29 19:46 | 61.44458 | -139.16152 | 34021 ft | 453 kts | 308° |
| 2026-04-29 19:47 | 61.49282 | -139.24659 | 34038 ft | 453 kts | 308° |
| 2026-04-29 19:47 | 61.54134 | -139.33098 | 34108 ft | 452 kts | 308° |
| 2026-04-29 19:48 | 61.58992 | -139.41547 | 34092 ft | 455 kts | 308° |
| 2026-04-29 19:48 | 61.63856 | -139.49953 | 34116 ft | 456 kts | 308° |
| 2026-04-29 19:49 | 61.68766 | -139.58477 | 34121 ft | 459 kts | 308° |
| 2026-04-29 19:49 | 61.73697 | -139.67117 | 34075 ft | 459 kts | 308° |
| 2026-04-29 19:50 | 61.78544 | -139.75746 | 34174 ft | 460 kts | 308° |
| 2026-04-29 19:50 | 61.83537 | -139.84401 | 34127 ft | 461 kts | 309° |
| 2026-04-29 19:51 | 61.88426 | -139.93009 | 34152 ft | 457 kts | 307° |
| 2026-04-29 19:51 | 61.93301 | -140.01700 | 34128 ft | 456 kts | 307° |
| 2026-04-29 19:52 | 61.98150 | -140.10393 | 34151 ft | 455 kts | 307° |
| 2026-04-29 19:52 | 62.02968 | -140.19045 | 34138 ft | 455 kts | 307° |
| 2026-04-29 19:53 | 62.07805 | -140.27755 | 34144 ft | 454 kts | 307° |
| 2026-04-29 19:53 | 62.12623 | -140.36472 | 34134 ft | 453 kts | 307° |
| 2026-04-29 19:54 | 62.19815 | -140.49567 | 34138 ft | 453 kts | 307° |
| 2026-04-29 19:54 | 62.24616 | -140.58344 | 34141 ft | 453 kts | 307° |
| 2026-04-29 19:55 | 62.29411 | -140.67160 | 34081 ft | 453 kts | 307° |
| 2026-04-29 19:55 | 62.34202 | -140.76001 | 34053 ft | 454 kts | 307° |
| 2026-04-29 19:56 | 62.38961 | -140.84816 | 34055 ft | 454 kts | 307° |
| 2026-04-29 19:56 | 62.43758 | -140.93750 | 34042 ft | 454 kts | 307° |
| 2026-04-29 19:57 | 62.47724 | -141.01158 | 34037 ft | 452 kts | 306° |
| 2026-04-29 19:57 | 62.53248 | -141.11539 | 34107 ft | 452 kts | 307° |
| 2026-04-29 19:58 | 62.57998 | -141.20530 | 34135 ft | 453 kts | 307° |
| 2026-04-29 19:58 | 62.62752 | -141.29564 | 34128 ft | 453 kts | 307° |
| 2026-04-29 19:59 | 62.67487 | -141.38594 | 34121 ft | 452 kts | 307° |
| 2026-04-29 19:59 | 62.71857 | -141.48058 | 34128 ft | 438 kts | 298° |
| 2026-04-29 20:00 | 62.75749 | -141.58280 | 34148 ft | 436 kts | 297° |
| 2026-04-29 20:00 | 62.79622 | -141.68577 | 34100 ft | 439 kts | 297° |
| 2026-04-29 20:01 | 62.83519 | -141.78816 | 34079 ft | 440 kts | 298° |
| 2026-04-29 20:01 | 62.87453 | -141.89109 | 34046 ft | 441 kts | 298° |
| 2026-04-29 20:02 | 62.91391 | -141.99437 | 34047 ft | 441 kts | 298° |
| 2026-04-29 20:02 | 62.93998 | -142.06302 | 34047 ft | 441 kts | 298° |
| 2026-04-29 20:03 | 62.99232 | -142.20158 | 34075 ft | 444 kts | 299° |
| 2026-04-29 20:03 | 63.03182 | -142.30669 | 34074 ft | 445 kts | 299° |
| 2026-04-29 20:04 | 63.07140 | -142.41248 | 34089 ft | 446 kts | 299° |
| 2026-04-29 20:04 | 63.11077 | -142.51819 | 34117 ft | 447 kts | 298° |
| 2026-04-29 20:05 | 63.14997 | -142.62393 | 34122 ft | 446 kts | 298° |
| 2026-04-29 20:05 | 63.18929 | -142.73070 | 34125 ft | 447 kts | 300° |
| 2026-04-29 20:06 | 63.22202 | -142.81980 | 34113 ft | 448 kts | 299° |
| 2026-04-29 20:06 | 63.26774 | -142.94486 | 34112 ft | 447 kts | 299° |
| 2026-04-29 20:07 | 63.30686 | -143.05244 | 34054 ft | 447 kts | 299° |
| 2026-04-29 20:07 | 63.33943 | -143.14240 | 34056 ft | 447 kts | 299° |
| 2026-04-29 20:08 | 63.37186 | -143.23238 | 34062 ft | 447 kts | 299° |
| 2026-04-29 20:08 | 63.41746 | -143.35949 | 34077 ft | 450 kts | 300° |
| 2026-04-29 20:09 | 63.45630 | -143.46837 | 34117 ft | 451 kts | 300° |
| 2026-04-29 20:09 | 63.49551 | -143.57878 | 34102 ft | 453 kts | 300° |
| 2026-04-29 20:10 | 63.53470 | -143.68971 | 34102 ft | 454 kts | 300° |
| 2026-04-29 20:10 | 63.57386 | -143.80101 | 34110 ft | 455 kts | 300° |
| 2026-04-29 20:11 | 63.61221 | -143.91321 | 34113 ft | 454 kts | 298° |
| 2026-04-29 20:11 | 63.64860 | -144.02901 | 34106 ft | 453 kts | 297° |
| 2026-04-29 20:12 | 63.68469 | -144.14548 | 34103 ft | 453 kts | 297° |
| 2026-04-29 20:12 | 63.72072 | -144.26129 | 34102 ft | 453 kts | 298° |
| 2026-04-29 20:13 | 63.75701 | -144.37771 | 34107 ft | 453 kts | 297° |
| 2026-04-29 20:13 | 63.77519 | -144.43628 | 33667 ft | 457 kts | 297° |
| 2026-04-29 20:13 | 63.79345 | -144.49520 | 32997 ft | 455 kts | 297° |
| 2026-04-29 20:14 | 63.81157 | -144.55380 | 32314 ft | 453 kts | 296° |
| 2026-04-29 20:14 | 63.82959 | -144.61226 | 31602 ft | 452 kts | 295° |
| 2026-04-29 20:14 | 63.84751 | -144.67056 | 31064 ft | 448 kts | 294° |
| 2026-04-29 20:14 | 63.86522 | -144.72824 | 30580 ft | 443 kts | 293° |
| 2026-04-29 20:15 | 63.88270 | -144.78530 | 30064 ft | 438 kts | 292° |
| 2026-04-29 20:15 | 63.89993 | -144.84171 | 29490 ft | 432 kts | 292° |
| 2026-04-29 20:15 | 63.91673 | -144.89691 | 28969 ft | 426 kts | 292° |
| 2026-04-29 20:15 | 63.93343 | -144.95191 | 28478 ft | 419 kts | 292° |
| 2026-04-29 20:16 | 63.94990 | -145.00632 | 27986 ft | 414 kts | 292° |
| 2026-04-29 20:16 | 63.96606 | -145.05995 | 27531 ft | 409 kts | 294° |
| 2026-04-29 20:16 | 63.98205 | -145.11317 | 27008 ft | 405 kts | 294° |
| 2026-04-29 20:16 | 63.99797 | -145.16611 | 26521 ft | 402 kts | 294° |
| 2026-04-29 20:17 | 64.01365 | -145.21846 | 26028 ft | 398 kts | 294° |
| 2026-04-29 20:17 | 64.02914 | -145.27031 | 25553 ft | 394 kts | 294° |
| 2026-04-29 20:17 | 64.04457 | -145.32206 | 25062 ft | 391 kts | 294° |
| 2026-04-29 20:17 | 64.05976 | -145.37313 | 24589 ft | 388 kts | 295° |
| 2026-04-29 20:18 | 64.07486 | -145.42403 | 24096 ft | 386 kts | 295° |
| 2026-04-29 20:18 | 64.08965 | -145.47393 | 23667 ft | 383 kts | 295° |
| 2026-04-29 20:18 | 64.10451 | -145.52422 | 23125 ft | 380 kts | 295° |
| 2026-04-29 20:18 | 64.11927 | -145.57422 | 22654 ft | 376 kts | 296° |
| 2026-04-29 20:19 | 64.13381 | -145.62358 | 22200 ft | 372 kts | 296° |
| 2026-04-29 20:19 | 64.14823 | -145.67266 | 21741 ft | 369 kts | 296° |
| 2026-04-29 20:19 | 64.16248 | -145.72132 | 21288 ft | 366 kts | 296° |
| 2026-04-29 20:19 | 64.17660 | -145.76967 | 20823 ft | 364 kts | 297° |
| 2026-04-29 20:20 | 64.19064 | -145.81779 | 20386 ft | 361 kts | 297° |
| 2026-04-29 20:20 | 64.20435 | -145.86487 | 19954 ft | 358 kts | 297° |
| 2026-04-29 20:20 | 64.21813 | -145.91230 | 19521 ft | 356 kts | 298° |
| 2026-04-29 20:20 | 64.23190 | -145.95980 | 19069 ft | 354 kts | 298° |
| 2026-04-29 20:21 | 64.24552 | -146.00681 | 18662 ft | 352 kts | 299° |
| 2026-04-29 20:21 | 64.25905 | -146.05358 | 18214 ft | 351 kts | 299° |
| 2026-04-29 20:21 | 64.27249 | -146.10023 | 17736 ft | 349 kts | 299° |
| 2026-04-29 20:21 | 64.28582 | -146.14658 | 17399 ft | 345 kts | 299° |
| 2026-04-29 20:22 | 64.29983 | -146.19157 | 17118 ft | 350 kts | 307° |
| 2026-04-29 20:22 | 64.31778 | -146.23094 | 16821 ft | 360 kts | 318° |
| 2026-04-29 20:22 | 64.33773 | -146.26607 | 16596 ft | 362 kts | 320° |
| 2026-04-29 20:22 | 64.35769 | -146.29993 | 16204 ft | 359 kts | 321° |
| 2026-04-29 20:23 | 64.37774 | -146.33370 | 15762 ft | 355 kts | 321° |
| 2026-04-29 20:23 | 64.39766 | -146.36747 | 15337 ft | 350 kts | 321° |
| 2026-04-29 20:23 | 64.41716 | -146.40077 | 14904 ft | 347 kts | 321° |
| 2026-04-29 20:23 | 64.43628 | -146.43364 | 14481 ft | 344 kts | 321° |
| 2026-04-29 20:24 | 64.45538 | -146.46662 | 14059 ft | 341 kts | 321° |
| 2026-04-29 20:24 | 64.47426 | -146.49938 | 13603 ft | 338 kts | 320° |
| 2026-04-29 20:24 | 64.49303 | -146.53204 | 13168 ft | 334 kts | 320° |
| 2026-04-29 20:24 | 64.51148 | -146.56422 | 12749 ft | 331 kts | 320° |
| 2026-04-29 20:25 | 64.52985 | -146.59634 | 12326 ft | 328 kts | 320° |
| 2026-04-29 20:25 | 64.54800 | -146.62818 | 11900 ft | 326 kts | 320° |
| 2026-04-29 20:25 | 64.56597 | -146.65979 | 11512 ft | 323 kts | 320° |
| 2026-04-29 20:25 | 64.58387 | -146.69116 | 11088 ft | 321 kts | 320° |
| 2026-04-29 20:26 | 64.60141 | -146.72199 | 10681 ft | 318 kts | 320° |
| 2026-04-29 20:26 | 64.61875 | -146.75265 | 10539 ft | 306 kts | 320° |
| 2026-04-29 20:26 | 64.63555 | -146.78224 | 10402 ft | 296 kts | 320° |
| 2026-04-29 20:26 | 64.65174 | -146.81080 | 10275 ft | 287 kts | 321° |
| 2026-04-29 20:27 | 64.66738 | -146.83857 | 10152 ft | 278 kts | 321° |
| 2026-04-29 20:27 | 64.67753 | -146.85655 | 10079 ft | 275 kts | 321° |
| 2026-04-29 20:27 | 64.69780 | -146.89262 | 9871 ft | 275 kts | 321° |
| 2026-04-29 20:27 | 64.71310 | -146.91983 | 9585 ft | 276 kts | 319° |
| 2026-04-29 20:28 | 64.72830 | -146.94691 | 9295 ft | 273 kts | 321° |
| 2026-04-29 20:28 | 64.74313 | -146.97338 | 9004 ft | 270 kts | 320° |
| 2026-04-29 20:28 | 64.75807 | -147.00009 | 8760 ft | 270 kts | 319° |
| 2026-04-29 20:28 | 64.77309 | -147.02702 | 8481 ft | 272 kts | 321° |
| 2026-04-29 20:29 | 64.78821 | -147.05411 | 8188 ft | 272 kts | 319° |
| 2026-04-29 20:29 | 64.80316 | -147.08094 | 7903 ft | 268 kts | 320° |
| 2026-04-29 20:29 | 64.81754 | -147.10686 | 7642 ft | 260 kts | 320° |
| 2026-04-29 20:29 | 64.83180 | -147.13251 | 7382 ft | 257 kts | 319° |
| 2026-04-29 20:30 | 64.84604 | -147.15814 | 7131 ft | 256 kts | 320° |
| 2026-04-29 20:30 | 64.86014 | -147.18372 | 6866 ft | 256 kts | 319° |
| 2026-04-29 20:30 | 64.87425 | -147.20931 | 6594 ft | 256 kts | 320° |
| 2026-04-29 20:30 | 64.88840 | -147.23480 | 6323 ft | 255 kts | 319° |
| 2026-04-29 20:31 | 64.90225 | -147.25986 | 6070 ft | 253 kts | 319° |
| 2026-04-29 20:31 | 64.91625 | -147.28535 | 5785 ft | 247 kts | 320° |
| 2026-04-29 20:31 | 64.92960 | -147.30911 | 5556 ft | 238 kts | 320° |
| 2026-04-29 20:31 | 64.94227 | -147.33236 | 5443 ft | 224 kts | 320° |
| 2026-04-29 20:32 | 64.95427 | -147.35436 | 5329 ft | 212 kts | 319° |
| 2026-04-29 20:32 | 64.96549 | -147.37486 | 5259 ft | 194 kts | 319° |
| 2026-04-29 20:32 | 64.97588 | -147.39389 | 5201 ft | 187 kts | 319° |
| 2026-04-29 20:32 | 64.98615 | -147.41267 | 5136 ft | 187 kts | 319° |
| 2026-04-29 20:33 | 64.99646 | -147.43157 | 5045 ft | 187 kts | 320° |
| 2026-04-29 20:33 | 65.00512 | -147.45317 | 4888 ft | 181 kts | 291° |
| 2026-04-29 20:33 | 65.00733 | -147.48130 | 4750 ft | 174 kts | 261° |
| 2026-04-29 20:33 | 65.00168 | -147.50584 | 4581 ft | 173 kts | 226° |
| 2026-04-29 20:34 | 64.99320 | -147.52666 | 4374 ft | 178 kts | 225° |
| 2026-04-29 20:34 | 64.98446 | -147.54778 | 4170 ft | 178 kts | 225° |
| 2026-04-29 20:34 | 64.97539 | -147.56732 | 3955 ft | 174 kts | 221° |
| 2026-04-29 20:34 | 64.96610 | -147.58541 | 3771 ft | 172 kts | 219° |
| 2026-04-29 20:35 | 64.95674 | -147.60285 | 3556 ft | 170 kts | 218° |
| 2026-04-29 20:35 | 64.94748 | -147.61995 | 3461 ft | 175 kts | 218° |
| 2026-04-29 20:35 | 64.93766 | -147.63798 | 3329 ft | 183 kts | 218° |
| 2026-04-29 20:35 | 64.92747 | -147.65661 | 3061 ft | 185 kts | 218° |
| 2026-04-29 20:36 | 64.91742 | -147.67506 | 2813 ft | 181 kts | 218° |
| 2026-04-29 20:36 | 64.90749 | -147.69326 | 2539 ft | 181 kts | 218° |
| 2026-04-29 20:36 | 64.89769 | -147.71125 | 2271 ft | 178 kts | 218° |
| 2026-04-29 20:36 | 64.88805 | -147.72893 | 1998 ft | 177 kts | 217° |
| 2026-04-29 20:37 | 64.87837 | -147.74668 | 1729 ft | 175 kts | 217° |
| 2026-04-29 20:37 | 64.86889 | -147.76410 | 1504 ft | 169 kts | 217° |
| 2026-04-29 20:37 | 64.85990 | -147.78064 | 1304 ft | 159 kts | 217° |
| 2026-04-29 20:37 | 64.85148 | -147.79610 | 1095 ft | 149 kts | 217° |
| 2026-04-29 20:38 | 64.84336 | -147.81102 | 927 ft | 147 kts | 216° |
| 2026-04-29 20:38 | 64.83530 | -147.82590 | 715 ft | 146 kts | 216° |
| 2026-04-29 20:38 | 64.82733 | -147.84050 | 481 ft | 144 kts | 216° |
| 2026-04-29 20:38 | 64.82001 | -147.85396 | 437 ft | 119 kts | 217° |
| 2026-04-29 20:39 | 64.81465 | -147.86379 | 432 ft | 76 kts | 217° |
| 2026-04-29 20:39 | 64.81166 | -147.86933 | 435 ft | 33 kts | 219° |
| 2026-04-29 20:39 | 64.81024 | -147.87194 | 432 ft | 25 kts | 217° |
| 2026-04-29 20:39 | 64.80894 | -147.87433 | 422 ft | 23 kts | 219° |
| 2026-04-29 20:40 | 64.80797 | -147.87615 | 424 ft | 15 kts | 224° |
| 2026-04-29 20:40 | 64.80793 | -147.87813 | 427 ft | 12 kts | 297° |
| 2026-04-29 20:40 | 64.80770 | -147.87983 | 435 ft | 12 kts | 218° |
| 2026-04-29 20:40 | 64.80721 | -147.88130 | 430 ft | 12 kts | 248° |
| 2026-04-29 20:41 | 64.80715 | -147.88313 | 435 ft | 11 kts | 276° |
| 2026-04-29 20:41 | 64.80668 | -147.88435 | 430 ft | 11 kts | 204° |
| 2026-04-29 20:41 | 64.80592 | -147.88443 | 424 ft | 12 kts | 173° |
| 2026-04-29 20:41 | 64.80504 | -147.88478 | 431 ft | 15 kts | 214° |
| 2026-04-29 20:42 | 64.80425 | -147.88623 | 435 ft | 14 kts | 217° |
| 2026-04-29 20:42 | 64.80364 | -147.88755 | 430 ft | 11 kts | 246° |
| 2026-04-29 20:42 | 64.80367 | -147.88934 | 425 ft | 11 kts | 251° |
| 2026-04-29 20:42 | 64.80346 | -147.89086 | 430 ft | 9 kts | 288° |
| 2026-04-29 20:43 | 64.80370 | -147.89165 | 435 ft | 0 kts | 308° |